Time;durP1;ratioP1;P1;durP2;ratioP2;P2;SDS_P1;SDS_P2;PMS_P1;PMS_P2;Temp;Humidity;BMP_temperature;BMP_pressure;BME280_temperature;BME280_humidity;BME280_pressure;Samples;Min_cycle;Max_cycle;Signal;HPM_P1;HPM_P2
2021/08/02 00:01:21;;;;;;;3.80;1.63;;;;;;;13.29;83.99;96338.69;3557410;40;20590;-71
2021/08/02 00:03:52;;;;;;;7.63;2.00;;;;;;;13.37;83.74;96343.34;3563539;39;20472;-71
2021/08/02 00:06:28;;;;;;;4.20;1.77;;;;;;;13.40;83.67;96345.69;3567321;40;20484;-69
2021/08/02 00:09:02;;;;;;;3.87;2.07;;;;;;;13.40;82.91;96345.69;3564265;39;20780;-71
2021/08/02 00:11:33;;;;;;;2.07;1.60;;;;;;;13.34;83.07;96351.47;3566545;40;20724;-70
2021/08/02 00:14:05;;;;;;;9.67;2.03;;;;;;;13.31;83.31;96342.06;3567518;39;20868;-70
2021/08/02 00:16:33;;;;;;;2.40;1.70;;;;;;;13.34;83.24;96343.59;3562111;40;20482;-69
2021/08/02 00:19:01;;;;;;;2.97;1.37;;;;;;;13.33;82.47;96345.41;3563383;39;20713;-70
2021/08/02 00:21:29;;;;;;;3.77;1.93;;;;;;;13.30;82.94;96342.19;3562407;40;20446;-69
2021/08/02 00:24:00;;;;;;;2.53;1.67;;;;;;;13.31;82.32;96343.84;3564734;39;20864;-72
2021/08/02 00:26:29;;;;;;;3.07;1.80;;;;;;;13.36;81.69;96354.81;3570996;39;20932;-71
2021/08/02 00:28:59;;;;;;;14.17;1.40;;;;;;;13.33;81.31;96348.03;3568059;39;20548;-73
2021/08/02 00:31:28;;;;;;;4.17;1.60;;;;;;;13.36;80.97;96357.44;3564991;40;20460;-72
2021/08/02 00:33:56;;;;;;;12.67;1.40;;;;;;;13.35;80.80;96361.88;3567742;39;20504;-72
2021/08/02 00:36:32;;;;;;;3.17;1.80;;;;;;;13.31;82.06;96356.97;3569691;40;20448;-71
2021/08/02 00:39:05;;;;;;;4.17;1.90;;;;;;;13.31;80.85;96360.47;3566544;39;20564;-72
2021/08/02 00:42:11;;;;;;;3.07;1.60;;;;;;;13.40;80.65;96369.38;3567244;40;20869;-71
2021/08/02 00:45:08;;;;;;;10.27;2.00;;;;;;;13.42;80.28;96370.91;3557022;40;20912;-70
2021/08/02 00:47:39;;;;;;;6.50;1.60;;;;;;;13.39;80.47;96376.44;3566097;40;20468;-70
2021/08/02 00:50:10;;;;;;;3.10;1.53;;;;;;;13.37;80.47;96375.72;3565685;39;20449;-69
2021/08/02 00:52:47;;;;;;;4.80;1.90;;;;;;;13.35;80.89;96376.81;3566136;40;21142;-71
2021/08/02 00:55:18;;;;;;;4.63;2.10;;;;;;;13.35;80.91;96375.03;3565619;40;20501;-69
2021/08/02 00:57:48;;;;;;;3.90;1.83;;;;;;;13.38;80.18;96368.66;3565280;40;20968;-68
2021/08/02 01:00:18;;;;;;;4.60;1.87;;;;;;;13.37;80.87;96369.66;3567448;40;20476;-69
2021/08/02 01:02:50;;;;;;;10.33;1.40;;;;;;;13.36;80.77;96370.59;3568020;40;20788;-73
2021/08/02 01:05:20;;;;;;;2.30;1.70;;;;;;;13.33;80.58;96370.84;3567443;39;20932;-72
2021/08/02 01:07:55;;;;;;;5.87;1.50;;;;;;;13.37;80.61;96377.53;3565001;39;21074;-72
2021/08/02 01:10:25;;;;;;;7.20;1.90;;;;;;;13.38;80.12;96371.31;3565318;40;20845;-73
2021/08/02 01:12:58;;;;;;;2.10;1.50;;;;;;;13.39;80.36;96362.47;3567545;39;20689;-73
2021/08/02 01:15:26;;;;;;;6.00;2.00;;;;;;;13.42;80.11;96373.53;3566905;40;20464;-73
2021/08/02 01:17:57;;;;;;;3.73;1.40;;;;;;;13.41;80.14;96368.44;3569533;39;20570;-70
2021/08/02 01:20:26;;;;;;;5.03;1.90;;;;;;;13.40;80.73;96367.56;3565935;40;20911;-70
2021/08/02 01:22:56;;;;;;;1.67;1.37;;;;;;;13.37;80.46;96359.94;3569422;39;20943;-70
2021/08/02 01:26:09;;;;;;;2.60;1.50;;;;;;;13.38;80.27;96358.97;3564861;40;20449;-72
2021/08/02 01:29:15;;;;;;;5.70;1.93;;;;;;;13.39;80.10;96359.81;3563218;39;20499;-69
2021/08/02 01:31:47;;;;;;;4.80;1.50;;;;;;;13.36;80.04;96350.38;3562269;40;20460;-71
2021/08/02 01:34:15;;;;;;;2.33;1.30;;;;;;;13.42;79.89;96352.50;3568407;39;20471;-71
2021/08/02 01:36:43;;;;;;;3.27;1.77;;;;;;;13.48;79.49;96350.31;3569522;40;20809;-70
2021/08/02 01:39:12;;;;;;;2.33;1.30;;;;;;;13.53;79.18;96358.66;3570452;39;20477;-70
2021/08/02 01:41:40;;;;;;;4.27;1.43;;;;;;;13.47;79.60;96354.75;3574090;40;20463;-71
2021/08/02 01:44:08;;;;;;;6.97;2.37;;;;;;;13.47;79.54;96352.13;3566196;39;20748;-70
2021/08/02 01:46:45;;;;;;;6.17;1.80;;;;;;;13.47;79.73;96354.75;3566462;40;20838;-71
2021/08/02 01:49:20;;;;;;;2.63;1.40;;;;;;;13.50;79.58;96348.38;3559038;40;20481;-71
2021/08/02 01:51:50;;;;;;;6.53;1.67;;;;;;;13.47;79.82;96352.13;3565494;40;20855;-72
2021/08/02 01:54:30;;;;;;;2.27;1.83;;;;;;;13.48;79.10;96350.31;3566487;39;20470;-71
2021/08/02 01:57:05;;;;;;;4.83;2.00;;;;;;;13.43;78.94;96343.66;3565624;40;20845;-70
2021/08/02 01:59:38;;;;;;;3.10;1.30;;;;;;;13.46;78.93;96350.44;3565301;39;20463;-70
2021/08/02 02:02:11;;;;;;;2.53;1.80;;;;;;;13.44;79.35;96350.56;3565408;40;20890;-71
2021/08/02 02:04:47;;;;;;;2.17;1.20;;;;;;;13.45;79.14;96348.78;3566128;39;21173;-71
2021/08/02 02:07:16;;;;;;;4.97;1.37;;;;;;;13.45;79.25;96351.41;3563948;39;20679;-71
2021/08/02 02:09:47;;;;;;;5.17;1.67;;;;;;;13.40;79.48;96348.34;3563701;39;20465;-70
2021/08/02 02:12:16;;;;;;;8.80;2.40;;;;;;;13.41;79.12;96353.47;3566511;40;20669;-70
2021/08/02 02:14:44;;;;;;;5.53;1.70;;;;;;;13.37;79.32;96352.06;3562397;40;20480;-70
2021/08/02 02:17:12;;;;;;;5.00;2.97;;;;;;;13.39;79.67;96351.94;3566354;40;20760;-71
2021/08/02 02:19:41;;;;;;;3.03;1.73;;;;;;;13.31;79.55;96354.34;3566924;40;20558;-70
2021/08/02 02:22:11;;;;;;;1.90;1.33;;;;;;;13.29;79.84;96361.50;3565298;39;20950;-70
2021/08/02 02:24:40;;;;;;;3.40;1.50;;;;;;;13.28;79.95;96359.84;3567828;39;20473;-70
2021/08/02 02:27:11;;;;;;;3.20;1.60;;;;;;;13.23;80.20;96358.44;3570069;40;20447;-70
2021/08/02 02:29:41;;;;;;;4.37;1.57;;;;;;;13.25;80.05;96361.78;3569147;39;20664;-70
2021/08/02 02:32:10;;;;;;;4.53;1.67;;;;;;;13.15;80.66;96362.66;3568119;40;20982;-72
2021/08/02 02:34:41;;;;;;;4.00;1.63;;;;;;;13.03;82.18;96367.13;3564841;39;20886;-70
2021/08/02 02:37:10;;;;;;;4.30;1.90;;;;;;;13.00;81.90;96370.03;3570367;40;20453;-69
2021/08/02 02:39:39;;;;;;;6.83;1.50;;;;;;;12.59;83.98;96363.72;3571005;39;20484;-70
2021/08/02 02:42:07;;;;;;;3.53;1.13;;;;;;;12.79;82.76;96378.69;3568104;40;20533;-70
2021/08/02 02:44:38;;;;;;;3.20;2.23;;;;;;;12.93;82.20;96384.63;3571865;39;20569;-70
2021/08/02 02:47:07;;;;;;;6.10;1.40;;;;;;;12.98;81.94;96374.59;3568847;40;20528;-71
2021/08/02 02:49:36;;;;;;;4.90;1.47;;;;;;;13.07;81.77;96373.81;3561486;39;21021;-71
2021/08/02 02:52:06;;;;;;;2.30;1.80;;;;;;;13.06;81.46;96385.28;3575003;40;20522;-71
2021/08/02 02:54:35;;;;;;;2.93;2.40;;;;;;;13.07;80.88;96381.69;3564262;39;20786;-72
2021/08/02 02:57:05;;;;;;;3.27;1.40;;;;;;;13.07;81.36;96379.06;3565435;40;20734;-71
2021/08/02 02:59:33;;;;;;;6.40;2.17;;;;;;;13.03;81.00;96385.53;3565349;39;20706;-71
2021/08/02 03:02:03;;;;;;;2.03;1.50;;;;;;;13.02;81.14;96378.63;3563358;40;20706;-72
2021/08/02 03:04:34;;;;;;;3.37;1.90;;;;;;;13.04;81.17;96381.97;3571604;39;20480;-73
2021/08/02 03:07:04;;;;;;;6.00;1.50;;;;;;;13.03;81.50;96382.91;3568949;40;20788;-70
2021/08/02 03:09:36;;;;;;;4.37;1.20;;;;;;;12.99;81.91;96382.31;3567909;39;20932;-73
2021/08/02 03:12:05;;;;;;;5.33;1.20;;;;;;;13.04;80.88;96381.97;3566979;40;20589;-71
2021/08/02 03:14:33;;;;;;;2.40;1.33;;;;;;;13.13;80.65;96378.59;3567621;39;20477;-70
2021/08/02 03:17:07;;;;;;;7.80;1.87;;;;;;;13.14;80.65;96384.66;3568542;40;20702;-70
2021/08/02 03:19:36;;;;;;;4.70;1.40;;;;;;;13.15;80.39;96381.91;3566658;40;20817;-73
2021/08/02 03:22:16;;;;;;;4.47;2.17;;;;;;;13.14;80.57;96384.66;3563062;40;20936;-72
2021/08/02 03:24:47;;;;;;;3.80;1.47;;;;;;;13.16;80.63;96388.81;3565556;39;20911;-73
2021/08/02 03:27:24;;;;;;;4.80;1.77;;;;;;;13.17;80.52;96384.41;3566844;40;20996;-71
2021/08/02 03:29:55;;;;;;;2.87;1.70;;;;;;;13.20;80.55;96384.97;3567391;39;20917;-70
2021/08/02 03:32:25;;;;;;;3.00;1.80;;;;;;;13.22;80.02;96387.50;3569759;40;20876;-69
2021/08/02 03:34:57;;;;;;;44.90;23.23;;;;;;;13.27;80.28;96387.94;3569288;39;20706;-71
2021/08/02 03:37:27;;;;;;;6.73;3.43;;;;;;;13.24;80.22;96393.44;3562087;40;20699;-69
2021/08/02 03:39:56;;;;;;;2.37;1.40;;;;;;;13.24;80.62;96390.81;3565914;39;20743;-69
2021/08/02 03:42:26;;;;;;;2.33;1.80;;;;;;;13.32;80.48;96400.75;3566558;40;20539;-72
2021/08/02 03:44:54;;;;;;;8.13;2.07;;;;;;;13.35;79.86;96389.94;3562293;39;20484;-70
2021/08/02 03:47:24;;;;;;;7.13;1.93;;;;;;;13.32;79.86;96406.81;3565275;40;20825;-71
2021/08/02 03:49:52;;;;;;;2.63;1.77;;;;;;;13.32;80.19;96403.38;3566564;40;20891;-71
2021/08/02 03:52:20;;;;;;;5.43;1.83;;;;;;;13.30;80.19;96411.38;3566218;40;20739;-72
2021/08/02 03:54:48;;;;;;;7.47;2.43;;;;;;;13.33;80.28;96410.28;3566802;39;20460;-70
2021/08/02 03:57:16;;;;;;;3.77;2.07;;;;;;;13.31;80.31;96409.56;3571638;40;20911;-71
2021/08/02 03:59:47;;;;;;;4.10;1.93;;;;;;;13.44;80.38;96407.59;3571941;40;20464;-72
2021/08/02 04:02:15;;;;;;;4.20;1.90;;;;;;;13.47;80.22;96410.00;3563305;40;20468;-70
2021/08/02 04:04:44;;;;;;;3.80;2.07;;;;;;;13.49;80.15;96410.69;3563246;40;20472;-71
2021/08/02 04:07:12;;;;;;;4.30;2.00;;;;;;;13.47;79.51;96411.78;3562978;40;20958;-70
2021/08/02 04:09:40;;;;;;;7.13;1.93;;;;;;;13.39;80.08;96413.25;3565125;39;20470;-72
2021/08/02 04:12:09;;;;;;;2.70;1.93;;;;;;;13.37;80.54;96419.63;3568937;40;20437;-73
2021/08/02 04:14:37;;;;;;;2.23;1.43;;;;;;;13.36;80.24;96426.66;3566964;39;20643;-72
2021/08/02 04:17:10;;;;;;;5.70;1.83;;;;;;;13.31;80.58;96427.97;3570670;40;20463;-72
2021/08/02 04:19:39;;;;;;;6.53;2.50;;;;;;;13.39;80.88;96425.59;3569548;39;20543;-71
2021/08/02 04:22:08;;;;;;;6.47;2.10;;;;;;;13.34;81.44;96427.75;3566055;40;21279;-73
2021/08/02 04:24:36;;;;;;;6.17;2.20;;;;;;;13.32;81.88;96433.13;3564150;39;20473;-70
2021/08/02 04:27:05;;;;;;;5.63;1.93;;;;;;;13.34;81.98;96433.00;3566680;40;20967;-71
2021/08/02 04:29:33;;;;;;;3.10;1.50;;;;;;;13.32;82.29;96434.94;3566421;40;20584;-74
2021/08/02 04:32:01;;;;;;;3.83;2.20;;;;;;;13.29;82.65;96441.25;3565415;40;20719;-73
2021/08/02 04:34:29;;;;;;;6.37;4.30;;;;;;;13.34;82.82;96438.25;3569127;39;21239;-73
2021/08/02 04:36:56;;;;;;;7.37;4.57;;;;;;;13.30;82.12;96442.94;3565090;40;20437;-72
2021/08/02 04:39:26;;;;;;;9.93;4.10;;;;;;;13.33;81.85;96441.84;3570424;40;20710;-74
2021/08/02 04:41:54;;;;;;;6.60;3.97;;;;;;;13.35;81.98;96451.28;3566698;40;20446;-73
2021/08/02 04:44:22;;;;;;;5.07;2.87;;;;;;;13.33;82.00;96447.09;3567926;39;20545;-72
2021/08/02 04:46:50;;;;;;;4.10;2.20;;;;;;;13.33;81.46;96447.97;3569886;40;20935;-72
2021/08/02 04:49:18;;;;;;;6.87;1.80;;;;;;;13.37;80.93;96446.75;3563813;39;20764;-73
2021/08/02 04:51:45;;;;;;;5.40;1.80;;;;;;;13.37;81.13;96449.38;3558639;40;20719;-72
2021/08/02 04:54:13;;;;;;;4.33;1.43;;;;;;;13.37;80.65;96452.00;3564706;39;20491;-72
2021/08/02 04:56:43;;;;;;;4.07;1.73;;;;;;;13.40;80.43;96453.53;3564969;40;20457;-72
2021/08/02 04:59:10;;;;;;;6.80;2.03;;;;;;;13.39;80.23;96457.16;3570433;39;20683;-72
2021/08/02 05:01:38;;;;;;;3.30;2.00;;;;;;;13.33;80.03;96457.63;3564975;40;20953;-72
2021/08/02 05:04:06;;;;;;;5.57;1.50;;;;;;;13.45;79.67;96457.47;3569392;39;20497;-73
2021/08/02 05:06:34;;;;;;;4.50;1.97;;;;;;;13.51;79.17;96456.13;3568640;40;20552;-70
2021/08/02 05:09:02;;;;;;;6.00;1.73;;;;;;;13.54;79.19;96457.66;3570566;39;20499;-73
2021/08/02 05:11:30;;;;;;;2.50;1.50;;;;;;;13.55;78.64;96457.53;3571550;40;20474;-75
2021/08/02 05:13:59;;;;;;;2.27;1.77;;;;;;;13.54;78.57;96455.03;3567471;39;20540;-68
2021/08/02 05:16:27;;;;;;;2.90;1.77;;;;;;;13.59;78.49;96458.94;3565220;40;20754;-71
2021/08/02 05:18:56;;;;;;;3.00;1.37;;;;;;;13.62;78.49;96458.72;3566925;39;20473;-70
2021/08/02 05:21:23;;;;;;;5.90;1.60;;;;;;;13.67;78.71;96465.38;3574628;40;20466;-72
2021/08/02 05:23:51;;;;;;;6.50;1.90;;;;;;;13.69;78.63;96466.09;3568692;39;20561;-70
2021/08/02 05:26:20;;;;;;;5.23;1.70;;;;;;;13.76;78.44;96467.22;3566513;40;20449;-72
2021/08/02 05:28:48;;;;;;;7.20;1.50;;;;;;;13.82;77.85;96469.38;3565830;39;20911;-69
2021/08/02 05:31:17;;;;;;;2.93;1.50;;;;;;;13.90;77.77;96477.44;3566055;40;20570;-71
2021/08/02 05:33:45;;;;;;;4.07;1.47;;;;;;;13.88;77.68;96460.94;3572643;39;20502;-75
2021/08/02 05:36:13;;;;;;;4.07;1.40;;;;;;;13.89;78.47;96467.03;3573566;39;20930;-71
2021/08/02 05:38:42;;;;;;;7.00;1.80;;;;;;;13.91;78.90;96463.31;3565110;39;20833;-70
2021/08/02 05:41:10;;;;;;;4.73;1.90;;;;;;;13.99;78.89;96462.66;3569924;40;20850;-72
2021/08/02 05:43:38;;;;;;;3.17;1.77;;;;;;;14.04;79.14;96469.22;3570963;39;20921;-72
2021/08/02 05:46:06;;;;;;;5.40;1.50;;;;;;;13.96;78.88;96469.03;3572053;40;20830;-74
2021/08/02 05:48:35;;;;;;;3.70;1.80;;;;;;;13.98;78.11;96472.38;3566149;39;21138;-71
2021/08/02 05:51:03;;;;;;;2.07;1.60;;;;;;;13.98;78.33;96471.53;3573551;39;21188;-69
2021/08/02 05:53:31;;;;;;;4.40;1.70;;;;;;;13.83;78.07;96471.84;3568573;39;20549;-71
2021/08/02 05:55:59;;;;;;;2.10;1.47;;;;;;;13.93;78.02;96474.53;3571729;39;20731;-69
2021/08/02 05:58:32;;;;;;;3.60;1.77;;;;;;;13.90;77.86;96477.44;3571733;39;20525;-70
2021/08/02 06:01:06;;;;;;;5.17;1.60;;;;;;;13.93;77.90;96477.16;3572185;40;20452;-71
2021/08/02 06:03:36;;;;;;;2.73;1.63;;;;;;;13.94;77.66;96478.03;3567697;39;20481;-69
2021/08/02 06:06:05;;;;;;;2.80;1.73;;;;;;;13.93;77.88;96484.25;3570772;40;20486;-72
2021/08/02 06:08:37;;;;;;;3.70;1.77;;;;;;;14.02;77.38;96483.47;3568570;39;20845;-73
2021/08/02 06:11:05;;;;;;;4.83;1.60;;;;;;;14.16;77.32;96487.56;3573445;40;20429;-72
2021/08/02 06:13:33;;;;;;;5.63;1.37;;;;;;;14.15;77.41;96489.38;3572152;39;20452;-73
2021/08/02 06:16:01;;;;;;;3.70;1.93;;;;;;;14.34;75.99;96491.25;3569421;40;20469;-70
2021/08/02 06:18:29;;;;;;;7.27;1.30;;;;;;;14.30;76.02;96495.13;3568990;39;20856;-71
2021/08/02 06:20:58;;;;;;;3.57;1.40;;;;;;;14.35;74.90;96497.38;3571525;40;20546;-74
2021/08/02 06:23:26;;;;;;;5.10;1.47;;;;;;;14.20;76.01;96495.06;3574783;39;21101;-71
2021/08/02 06:25:54;;;;;;;3.80;1.50;;;;;;;14.42;75.61;96498.50;3570121;40;20878;-70
2021/08/02 06:28:22;;;;;;;8.73;1.40;;;;;;;14.49;75.01;96504.09;3566165;39;20510;-71
2021/08/02 06:30:50;;;;;;;1.63;1.30;;;;;;;14.45;75.65;96503.53;3569193;40;21130;-74
2021/08/02 06:33:18;;;;;;;4.47;1.30;;;;;;;14.48;74.86;96502.41;3570856;39;20461;-72
2021/08/02 06:35:46;;;;;;;3.43;1.30;;;;;;;14.62;73.99;96496.81;3577217;40;20911;-74
2021/08/02 06:38:15;;;;;;;1.57;1.30;;;;;;;14.92;74.34;96495.94;3574717;39;20463;-74
2021/08/02 06:40:44;;;;;;;7.03;1.50;;;;;;;14.81;74.44;96494.25;3568728;40;20897;-71
2021/08/02 06:43:13;;;;;;;2.33;1.83;;;;;;;14.71;74.76;96497.81;3567464;39;21185;-75
2021/08/02 06:45:41;;;;;;;2.40;1.67;;;;;;;14.79;75.00;96493.53;3575790;40;20842;-72
2021/08/02 06:48:10;;;;;;;2.10;1.37;;;;;;;14.94;74.44;96485.28;3569265;39;20549;-76
2021/08/02 06:50:38;;;;;;;10.43;1.97;;;;;;;15.03;73.35;96501.13;3569441;40;20461;-70
2021/08/02 06:53:06;;;;;;;1.23;1.10;;;;;;;15.23;73.25;96503.78;3570761;39;20730;-73
2021/08/02 06:55:35;;;;;;;2.37;1.53;;;;;;;15.50;71.89;96492.53;3571730;40;20468;-72
2021/08/02 06:58:03;;;;;;;5.07;1.73;;;;;;;15.41;72.38;96502.13;3569730;39;20494;-72
2021/08/02 07:00:31;;;;;;;5.10;1.77;;;;;;;15.76;72.02;96492.03;3579007;39;20521;-71
2021/08/02 07:03:00;;;;;;;3.13;1.60;;;;;;;15.97;71.02;96503.25;3574151;39;20477;-72
2021/08/02 07:05:29;;;;;;;2.20;1.70;;;;;;;15.61;70.41;96499.50;3572734;40;20466;-71
2021/08/02 07:07:56;;;;;;;2.13;1.30;;;;;;;15.72;69.80;96498.50;3574125;40;20461;-73
2021/08/02 07:10:25;;;;;;;22.67;12.00;;;;;;;16.00;70.20;96497.69;3568307;40;20708;-69
2021/08/02 07:12:54;;;;;;;2.33;1.93;;;;;;;16.11;69.72;96498.50;3565414;39;20497;-72
2021/08/02 07:15:22;;;;;;;3.10;1.47;;;;;;;16.19;68.38;96501.25;3572960;39;20816;-77
2021/08/02 07:17:50;;;;;;;3.77;1.87;;;;;;;16.16;69.86;96502.38;3566458;39;20450;-69
2021/08/02 07:20:18;;;;;;;4.17;1.20;;;;;;;16.51;68.41;96498.25;3560098;40;20793;-71
2021/08/02 07:22:46;;;;;;;1.90;1.27;;;;;;;16.53;67.29;96504.22;3566185;40;20439;-70
2021/08/02 07:25:14;;;;;;;3.10;1.50;;;;;;;16.59;68.31;96508.09;3565372;40;20528;-71
2021/08/02 07:27:43;;;;;;;2.27;1.20;;;;;;;16.69;67.47;96503.59;3562013;40;20499;-72
2021/08/02 07:30:12;;;;;;;4.60;1.30;;;;;;;16.52;67.60;96512.28;3566118;39;20466;-70
2021/08/02 07:32:40;;;;;;;2.57;1.40;;;;;;;16.69;66.86;96514.19;3567682;40;20831;-71
2021/08/02 07:35:09;;;;;;;1.50;1.10;;;;;;;16.26;68.44;96505.00;3567492;39;21174;-69
2021/08/02 07:37:40;;;;;;;16.20;8.43;;;;;;;16.66;67.47;96519.78;3568234;40;20678;-71
2021/08/02 07:40:10;;;;;;;12.00;6.60;;;;;;;17.33;65.82;96511.66;3571281;39;20461;-73
2021/08/02 07:42:38;;;;;;;2.33;1.30;;;;;;;18.08;64.12;96500.75;3568632;40;21136;-72
2021/08/02 07:45:07;;;;;;;4.17;1.17;;;;;;;17.66;64.44;96506.66;3569486;40;20489;-71
2021/08/02 07:47:37;;;;;;;1.80;1.17;;;;;;;17.58;64.52;96507.41;3571856;40;20443;-71
2021/08/02 07:50:06;;;;;;;4.47;1.27;;;;;;;17.40;65.46;96507.41;3574650;39;20825;-71
2021/08/02 07:52:34;;;;;;;4.00;1.70;;;;;;;17.53;64.93;96507.88;3564659;40;20475;-74
2021/08/02 07:55:04;;;;;;;2.13;1.20;;;;;;;18.25;61.61;96505.19;3559788;40;20796;-69
2021/08/02 07:57:32;;;;;;;2.93;1.43;;;;;;;17.72;63.45;96503.41;3569593;40;20438;-71
2021/08/02 08:00:02;;;;;;;9.57;1.40;;;;;;;17.97;62.51;96510.63;3568648;39;20504;-69
2021/08/02 08:02:30;;;;;;;5.13;1.30;;;;;;;17.76;63.00;96510.91;3569269;40;20768;-72
2021/08/02 08:04:59;;;;;;;1.70;1.20;;;;;;;17.98;62.98;96504.31;3566986;40;20473;-73
2021/08/02 08:07:27;;;;;;;4.43;1.20;;;;;;;17.77;62.42;96506.44;3565961;40;20442;-73
2021/08/02 08:09:55;;;;;;;3.33;1.20;;;;;;;18.15;62.16;96502.63;3567006;39;20970;-72
2021/08/02 08:12:23;;;;;;;2.30;1.30;;;;;;;18.23;60.88;96498.34;3570193;40;20835;-73
2021/08/02 08:14:51;;;;;;;2.20;1.20;;;;;;;18.46;60.59;96494.19;3570824;39;20572;-72
2021/08/02 08:17:19;;;;;;;2.07;1.50;;;;;;;18.27;61.79;96494.41;3562400;40;20680;-70
2021/08/02 08:19:48;;;;;;;3.80;1.67;;;;;;;18.34;61.73;96495.44;3567597;39;20770;-76
2021/08/02 08:22:17;;;;;;;3.27;1.17;;;;;;;18.37;61.86;96498.63;3571841;40;21217;-75
2021/08/02 08:24:46;;;;;;;3.23;1.37;;;;;;;18.56;60.20;96494.06;3565308;40;21183;-70
2021/08/02 08:27:14;;;;;;;3.30;1.20;;;;;;;18.68;60.80;96494.63;3570632;40;20454;-74
2021/08/02 08:29:42;;;;;;;3.30;1.37;;;;;;;18.18;61.23;96499.66;3565379;39;20681;-69
2021/08/02 08:32:10;;;;;;;2.00;1.03;;;;;;;18.27;61.23;96499.69;3563167;40;20479;-70
2021/08/02 08:34:38;;;;;;;3.53;1.20;;;;;;;18.30;60.47;96500.22;3566438;39;20476;-73
2021/08/02 08:37:06;;;;;;;1.73;1.10;;;;;;;18.67;58.42;96507.06;3570698;40;20450;-70
2021/08/02 08:39:36;;;;;;;2.60;1.20;;;;;;;18.51;58.06;96507.00;3570133;39;20909;-70
2021/08/02 08:42:05;;;;;;;6.20;1.73;;;;;;;18.49;58.41;96496.53;3566745;40;20538;-70
2021/08/02 08:44:34;;;;;;;1.77;1.20;;;;;;;18.37;58.77;96495.97;3567247;39;20546;-70
2021/08/02 08:47:02;;;;;;;4.10;1.13;;;;;;;18.47;59.28;96508.31;3576110;40;20860;-70
2021/08/02 08:49:30;;;;;;;1.43;1.20;;;;;;;18.18;59.31;96506.78;3569956;39;20568;-69
2021/08/02 08:51:59;;;;;;;1.83;1.13;;;;;;;18.26;58.30;96501.53;3570016;40;20862;-74
2021/08/02 08:54:31;;;;;;;2.77;1.20;;;;;;;18.55;58.55;96505.69;3566014;39;20564;-71
2021/08/02 08:57:01;;;;;;;1.27;1.00;;;;;;;19.02;57.36;96499.13;3569904;40;20503;-69
2021/08/02 08:59:30;;;;;;;1.73;1.13;;;;;;;19.05;56.64;96502.31;3563544;39;20808;-71
2021/08/02 09:02:02;;;;;;;3.83;1.30;;;;;;;18.81;57.86;96497.72;3570413;39;20882;-71
2021/08/02 09:04:34;;;;;;;4.67;1.23;;;;;;;18.49;58.74;96499.19;3575178;39;21162;-73
2021/08/02 09:07:06;;;;;;;2.00;1.20;;;;;;;18.23;59.39;96493.91;3575147;40;20733;-70
2021/08/02 09:09:35;;;;;;;3.73;1.50;;;;;;;17.86;60.48;96494.97;3568727;39;20465;-69
2021/08/02 09:12:07;;;;;;;1.33;0.90;;;;;;;18.24;60.19;96489.44;3574486;40;20474;-70
2021/08/02 09:14:35;;;;;;;2.30;1.30;;;;;;;18.55;59.87;96492.44;3574789;39;20563;-71
2021/08/02 09:17:07;;;;;;;2.83;1.17;;;;;;;18.45;58.50;96486.41;3568584;40;20812;-71
2021/08/02 09:19:41;;;;;;;7.90;1.30;;;;;;;18.59;58.68;96488.47;3584239;39;20911;-70
2021/08/02 09:22:09;;;;;;;1.77;0.90;;;;;;;18.41;58.48;96488.53;3563801;40;20458;-70
2021/08/02 09:24:39;;;;;;;2.33;0.93;;;;;;;18.36;58.35;96494.28;3567971;40;20540;-71
2021/08/02 09:27:08;;;;;;;4.30;1.53;;;;;;;18.78;58.19;96498.84;3571937;40;20857;-70
2021/08/02 09:29:36;;;;;;;1.93;1.00;;;;;;;18.98;58.57;96497.78;3564977;39;20571;-72
2021/08/02 09:32:09;;;;;;;2.30;1.13;;;;;;;18.89;57.79;96499.56;3569472;40;20896;-70
2021/08/02 09:34:50;;;;;;;2.90;1.23;;;;;;;18.93;58.64;96495.59;3573669;39;20810;-72
2021/08/02 09:37:22;;;;;;;4.90;1.20;;;;;;;18.18;64.94;96497.00;3575288;40;20484;-71
2021/08/02 09:39:53;;;;;;;2.03;1.10;;;;;;;17.78;62.23;96492.22;3564857;40;20437;-69
2021/08/02 09:42:25;;;;;;;1.90;1.23;;;;;;;18.12;60.92;96500.28;3570964;40;20480;-71
2021/08/02 09:45:13;;;;;;;10.43;1.93;;;;;;;18.82;60.91;96490.56;3567046;40;20461;-71
2021/08/02 09:47:41;;;;;;;1.40;1.13;;;;;;;19.29;59.34;96484.78;3568417;40;20850;-71
2021/08/02 09:50:11;;;;;;;1.93;0.90;;;;;;;20.59;56.33;96487.59;3576940;39;21180;-73
2021/08/02 09:52:38;;;;;;;1.90;1.10;;;;;;;20.53;52.59;96481.13;3566635;40;20510;-73
2021/08/02 09:55:12;;;;;;;4.10;1.40;;;;;;;20.83;57.96;96479.53;3570187;39;20893;-71
2021/08/02 09:57:42;;;;;;;2.30;1.00;;;;;;;19.22;55.15;96483.75;3569419;40;20534;-72
2021/08/02 10:00:13;;;;;;;2.20;0.90;;;;;;;18.96;57.25;96484.69;3570280;39;20475;-71
2021/08/02 10:02:42;;;;;;;1.80;1.10;;;;;;;19.31;57.15;96480.16;3567971;40;20745;-70
2021/08/02 10:05:12;;;;;;;3.10;1.30;;;;;;;18.73;57.91;96485.22;3571458;40;20461;-72
2021/08/02 10:07:40;;;;;;;2.90;1.50;;;;;;;18.69;61.06;96494.47;3567433;40;20946;-69
2021/08/02 10:10:09;;;;;;;3.03;1.13;;;;;;;18.37;61.58;96490.66;3564870;39;20517;-72
2021/08/02 10:12:43;;;;;;;1.83;0.90;;;;;;;18.47;61.58;96487.91;3569523;40;20459;-70
2021/08/02 10:15:15;;;;;;;3.60;1.00;;;;;;;18.44;59.18;96484.75;3572452;39;20707;-71
2021/08/02 10:17:48;;;;;;;1.30;0.83;;;;;;;18.31;58.18;96483.34;3569177;40;20788;-72
2021/08/02 10:20:18;;;;;;;2.23;1.00;;;;;;;18.42;58.45;96498.16;3568279;40;20856;-71
2021/08/02 10:22:47;;;;;;;2.53;1.00;;;;;;;17.90;61.18;96488.38;3565435;40;20840;-69
2021/08/02 10:25:15;;;;;;;2.43;1.10;;;;;;;17.88;63.98;96484.22;3569019;40;20952;-72
2021/08/02 10:27:44;;;;;;;6.60;2.30;;;;;;;17.52;70.22;96497.44;3568676;40;20458;-71
2021/08/02 10:30:23;;;;;;;7.07;2.00;;;;;;;17.64;73.14;96493.59;3567585;40;20509;-70
2021/08/02 10:32:53;;;;;;;45.87;23.70;;;;;;;17.98;73.79;96493.72;3568383;39;20459;-72
2021/08/02 10:35:48;;;;;;;6.60;2.33;;;;;;;18.70;70.61;96492.66;3572201;40;20465;-72
2021/08/02 10:38:18;;;;;;;10.77;1.70;;;;;;;19.28;67.51;96499.03;3546626;40;20979;-72
2021/08/02 10:40:51;;;;;;;2.70;1.70;;;;;;;19.50;66.95;96497.56;3578677;40;20815;-71
2021/08/02 10:43:35;;;;;;;2.93;1.40;;;;;;;19.41;63.20;96499.41;3574208;39;20802;-70
2021/08/02 10:46:16;;;;;;;2.03;1.10;;;;;;;19.20;59.58;96497.19;3564882;40;20715;-70
2021/08/02 10:48:45;;;;;;;2.60;1.30;;;;;;;18.90;65.73;96502.06;3570909;39;20803;-71
2021/08/02 10:51:18;;;;;;;2.07;1.53;;;;;;;18.75;67.96;96493.03;3575700;40;20841;-71
2021/08/02 10:53:57;;;;;;;28.43;16.50;;;;;;;18.36;71.00;96499.59;3568126;39;20762;-71
2021/08/02 10:56:30;;;;;;;8.33;4.07;;;;;;;17.96;68.72;96501.00;3570854;40;20718;-72
2021/08/02 10:59:00;;;;;;;5.83;2.03;;;;;;;17.29;71.38;96495.25;3568309;39;21154;-74
2021/08/02 11:01:29;;;;;;;2.40;1.50;;;;;;;16.39;73.81;96502.06;3570559;40;20457;-70
2021/08/02 11:04:10;;;;;;;4.07;1.20;;;;;;;16.04;78.18;96513.25;3572938;39;20528;-72
2021/08/02 11:06:38;;;;;;;6.80;1.90;;;;;;;15.41;81.57;96514.50;3571875;40;20497;-70
2021/08/02 11:09:06;;;;;;;7.53;2.43;;;;;;;15.11;82.74;96512.78;3567881;39;20785;-68
2021/08/02 11:11:43;;;;;;;6.37;1.70;;;;;;;15.28;78.13;96516.56;3566436;40;20464;-70
2021/08/02 11:14:15;;;;;;;6.30;3.07;;;;;;;15.22;78.88;96502.09;3565417;39;20465;-72
2021/08/02 11:16:46;;;;;;;6.10;1.80;;;;;;;15.10;77.88;96497.94;3567772;40;20507;-72
2021/08/02 11:19:16;;;;;;;4.50;1.30;;;;;;;15.65;77.50;96492.16;3569657;39;20789;-68
2021/08/02 11:21:45;;;;;;;3.50;1.70;;;;;;;15.46;76.42;96493.78;3571667;40;20446;-73
2021/08/02 11:24:15;;;;;;;2.47;1.47;;;;;;;17.00;69.96;96488.31;3568369;39;20454;-71
2021/08/02 11:26:57;;;;;;;3.70;1.60;;;;;;;17.94;69.77;96484.44;3574820;40;20472;-72
2021/08/02 11:29:28;;;;;;;6.27;1.60;;;;;;;18.70;67.04;96469.63;3570525;40;20821;-73
2021/08/02 11:31:58;;;;;;;3.63;1.40;;;;;;;17.82;65.74;96461.78;3575180;40;20508;-70
2021/08/02 11:34:27;;;;;;;1.53;0.90;;;;;;;19.61;62.30;96459.25;3565917;39;20462;-70
2021/08/02 11:37:04;;;;;;;2.37;1.60;;;;;;;19.00;60.65;96459.50;3569492;40;20837;-70
2021/08/02 11:39:33;;;;;;;5.10;1.20;;;;;;;19.60;60.25;96460.25;3568473;39;20487;-73
2021/08/02 11:42:05;;;;;;;15.43;10.00;;;;;;;20.00;56.93;96471.91;3575297;39;20473;-72
2021/08/02 11:44:38;;;;;;;5.07;4.13;;;;;;;20.93;57.67;96471.34;3567697;40;20802;-71
2021/08/02 11:47:15;;;;;;;2.97;1.40;;;;;;;20.98;60.56;96470.84;3569982;40;20733;-72